sensor_id;sensor_type;location;lat;lon;timestamp;pressure;altitude;pressure_sealevel;temperature;humidity
54924;BME280;40825;52.270;20.984;2022-12-07T00:01:17;99843.14;;;0.81;95.80
54924;BME280;40825;52.270;20.984;2022-12-07T00:03:45;99844.80;;;0.82;95.89
54924;BME280;40825;52.270;20.984;2022-12-07T00:06:14;99846.95;;;0.84;95.97
54924;BME280;40825;52.270;20.984;2022-12-07T00:08:40;99840.91;;;0.85;95.85
54924;BME280;40825;52.270;20.984;2022-12-07T00:11:09;99840.56;;;0.86;95.82
54924;BME280;40825;52.270;20.984;2022-12-07T00:13:35;99833.27;;;0.88;96.01
54924;BME280;40825;52.270;20.984;2022-12-07T00:16:02;99830.81;;;0.90;96.11
54924;BME280;40825;52.270;20.984;2022-12-07T00:18:28;99828.38;;;0.91;95.98
54924;BME280;40825;52.270;20.984;2022-12-07T00:20:59;99829.20;;;0.92;95.99
54924;BME280;40825;52.270;20.984;2022-12-07T00:23:25;99823.38;;;0.92;96.06
54924;BME280;40825;52.270;20.984;2022-12-07T00:25:50;99826.13;;;0.95;96.00
54924;BME280;40825;52.270;20.984;2022-12-07T00:28:16;99825.13;;;0.96;95.96
54924;BME280;40825;52.270;20.984;2022-12-07T00:30:41;99824.10;;;0.98;95.98
54924;BME280;40825;52.270;20.984;2022-12-07T00:33:06;99824.03;;;1.00;95.91
54924;BME280;40825;52.270;20.984;2022-12-07T00:35:32;99822.90;;;1.03;96.13
54924;BME280;40825;52.270;20.984;2022-12-07T00:37:57;99817.80;;;1.05;96.09
54924;BME280;40825;52.270;20.984;2022-12-07T00:40:23;99813.55;;;1.07;96.29
54924;BME280;40825;52.270;20.984;2022-12-07T00:42:49;99813.66;;;1.10;96.14
54924;BME280;40825;52.270;20.984;2022-12-07T00:45:14;99812.38;;;1.13;96.23
54924;BME280;40825;52.270;20.984;2022-12-07T00:47:40;99815.90;;;1.13;96.12
54924;BME280;40825;52.270;20.984;2022-12-07T00:50:06;99814.95;;;1.14;96.36
54924;BME280;40825;52.270;20.984;2022-12-07T00:52:31;99813.69;;;1.14;96.54
54924;BME280;40825;52.270;20.984;2022-12-07T00:54:57;99814.88;;;1.16;96.45
54924;BME280;40825;52.270;20.984;2022-12-07T00:57:22;99811.02;;;1.18;96.66
54924;BME280;40825;52.270;20.984;2022-12-07T00:59:48;99811.46;;;1.21;96.46
54924;BME280;40825;52.270;20.984;2022-12-07T01:02:13;99812.80;;;1.25;96.65
54924;BME280;40825;52.270;20.984;2022-12-07T01:04:39;99806.58;;;1.30;96.52
54924;BME280;40825;52.270;20.984;2022-12-07T01:07:04;99809.27;;;1.33;96.36
54924;BME280;40825;52.270;20.984;2022-12-07T01:09:30;99805.80;;;1.36;96.50
54924;BME280;40825;52.270;20.984;2022-12-07T01:11:55;99805.95;;;1.41;96.47
54924;BME280;40825;52.270;20.984;2022-12-07T01:14:21;99802.50;;;1.44;96.54
54924;BME280;40825;52.270;20.984;2022-12-07T01:16:46;99798.48;;;1.43;96.51
54924;BME280;40825;52.270;20.984;2022-12-07T01:19:12;99801.02;;;1.46;96.53
54924;BME280;40825;52.270;20.984;2022-12-07T01:21:38;99795.85;;;1.49;96.57
54924;BME280;40825;52.270;20.984;2022-12-07T01:24:05;99795.48;;;1.51;96.44
54924;BME280;40825;52.270;20.984;2022-12-07T01:26:31;99794.80;;;1.53;96.50
54924;BME280;40825;52.270;20.984;2022-12-07T01:28:57;99794.21;;;1.55;96.59
54924;BME280;40825;52.270;20.984;2022-12-07T01:31:25;99795.55;;;1.56;96.59
54924;BME280;40825;52.270;20.984;2022-12-07T01:33:53;99797.75;;;1.57;96.52
54924;BME280;40825;52.270;20.984;2022-12-07T01:36:22;99797.55;;;1.57;96.53
54924;BME280;40825;52.270;20.984;2022-12-07T01:38:50;99799.11;;;1.57;96.64
54924;BME280;40825;52.270;20.984;2022-12-07T01:41:19;99800.30;;;1.58;96.61
54924;BME280;40825;52.270;20.984;2022-12-07T01:44:08;99802.64;;;1.59;96.80
54924;BME280;40825;52.270;20.984;2022-12-07T01:46:34;99796.98;;;1.61;96.62
54924;BME280;40825;52.270;20.984;2022-12-07T01:48:59;99799.96;;;1.63;96.63
54924;BME280;40825;52.270;20.984;2022-12-07T01:51:26;99795.85;;;1.64;96.66
54924;BME280;40825;52.270;20.984;2022-12-07T01:53:52;99793.69;;;1.64;96.65
54924;BME280;40825;52.270;20.984;2022-12-07T01:56:20;99795.41;;;1.65;96.66
54924;BME280;40825;52.270;20.984;2022-12-07T01:58:49;99793.77;;;1.65;96.63
54924;BME280;40825;52.270;20.984;2022-12-07T02:01:14;99792.55;;;1.68;96.70
54924;BME280;40825;52.270;20.984;2022-12-07T02:03:42;99794.64;;;1.70;96.70
54924;BME280;40825;52.270;20.984;2022-12-07T02:06:11;99790.95;;;1.70;96.65
54924;BME280;40825;52.270;20.984;2022-12-07T02:08:37;99785.90;;;1.71;96.67
54924;BME280;40825;52.270;20.984;2022-12-07T02:11:05;99781.13;;;1.71;96.71
54924;BME280;40825;52.270;20.984;2022-12-07T02:13:35;99788.10;;;1.72;96.59
54924;BME280;40825;52.270;20.984;2022-12-07T02:22:24;99782.36;;;1.73;96.65
54924;BME280;40825;52.270;20.984;2022-12-07T02:27:47;99785.90;;;1.75;96.64
54924;BME280;40825;52.270;20.984;2022-12-07T02:30:22;99780.14;;;1.76;96.69
54924;BME280;40825;52.270;20.984;2022-12-07T02:33:01;99780.11;;;1.76;96.71
54924;BME280;40825;52.270;20.984;2022-12-07T02:35:57;99778.98;;;1.77;96.70
54924;BME280;40825;52.270;20.984;2022-12-07T02:38:37;99778.10;;;1.77;96.88
54924;BME280;40825;52.270;20.984;2022-12-07T02:41:07;99774.52;;;1.76;96.89
54924;BME280;40825;52.270;20.984;2022-12-07T02:43:38;99774.04;;;1.79;96.88
54924;BME280;40825;52.270;20.984;2022-12-07T02:46:10;99772.62;;;1.79;96.76
54924;BME280;40825;52.270;20.984;2022-12-07T02:48:38;99769.14;;;1.79;96.79
54924;BME280;40825;52.270;20.984;2022-12-07T02:51:05;99771.87;;;1.80;96.87
54924;BME280;40825;52.270;20.984;2022-12-07T02:53:38;99769.27;;;1.79;96.91
54924;BME280;40825;52.270;20.984;2022-12-07T03:01:25;99773.15;;;1.79;96.80
54924;BME280;40825;52.270;20.984;2022-12-07T03:04:11;99766.88;;;1.79;96.87
54924;BME280;40825;52.270;20.984;2022-12-07T03:06:45;99767.21;;;1.77;96.75
54924;BME280;40825;52.270;20.984;2022-12-07T03:09:22;99767.51;;;1.76;96.87
54924;BME280;40825;52.270;20.984;2022-12-07T03:12:00;99764.88;;;1.74;96.79
54924;BME280;40825;52.270;20.984;2022-12-07T03:14:34;99765.42;;;1.72;96.71
54924;BME280;40825;52.270;20.984;2022-12-07T03:17:13;99762.60;;;1.70;96.75
54924;BME280;40825;52.270;20.984;2022-12-07T03:19:41;99759.80;;;1.70;96.71
54924;BME280;40825;52.270;20.984;2022-12-07T03:22:11;99760.66;;;1.69;96.65
54924;BME280;40825;52.270;20.984;2022-12-07T03:24:42;99760.69;;;1.69;96.65
54924;BME280;40825;52.270;20.984;2022-12-07T03:32:36;99756.20;;;1.64;96.58
54924;BME280;40825;52.270;20.984;2022-12-07T03:35:30;99756.05;;;1.60;96.62
54924;BME280;40825;52.270;20.984;2022-12-07T03:38:06;99752.89;;;1.56;96.52
54924;BME280;40825;52.270;20.984;2022-12-07T03:40:45;99748.08;;;1.54;96.59
54924;BME280;40825;52.270;20.984;2022-12-07T03:43:12;99742.10;;;1.50;96.56
54924;BME280;40825;52.270;20.984;2022-12-07T03:45:56;99740.43;;;1.47;96.58
54924;BME280;40825;52.270;20.984;2022-12-07T03:48:37;99737.35;;;1.45;96.52
54924;BME280;40825;52.270;20.984;2022-12-07T03:53:46;99734.62;;;1.38;96.60
54924;BME280;40825;52.270;20.984;2022-12-07T03:56:14;99732.61;;;1.35;97.55
54924;BME280;40825;52.270;20.984;2022-12-07T03:58:41;99732.40;;;1.30;97.68
54924;BME280;40825;52.270;20.984;2022-12-07T04:01:06;99729.56;;;1.27;97.84
54924;BME280;40825;52.270;20.984;2022-12-07T04:03:32;99729.27;;;1.24;98.03
54924;BME280;40825;52.270;20.984;2022-12-07T04:05:58;99731.71;;;1.22;97.97
54924;BME280;40825;52.270;20.984;2022-12-07T04:08:24;99730.51;;;1.20;98.10
54924;BME280;40825;52.270;20.984;2022-12-07T04:10:50;99729.64;;;1.19;98.27
54924;BME280;40825;52.270;20.984;2022-12-07T04:13:16;99724.58;;;1.19;98.27
54924;BME280;40825;52.270;20.984;2022-12-07T04:15:41;99724.23;;;1.17;98.32
54924;BME280;40825;52.270;20.984;2022-12-07T04:18:07;99723.02;;;1.15;98.33
54924;BME280;40825;52.270;20.984;2022-12-07T04:20:32;99721.38;;;1.13;98.24
54924;BME280;40825;52.270;20.984;2022-12-07T04:22:58;99727.55;;;1.15;98.38
54924;BME280;40825;52.270;20.984;2022-12-07T04:25:23;99720.11;;;1.14;98.30
54924;BME280;40825;52.270;20.984;2022-12-07T04:27:48;99725.00;;;1.10;98.15
54924;BME280;40825;52.270;20.984;2022-12-07T04:30:14;99725.34;;;1.08;97.96
54924;BME280;40825;52.270;20.984;2022-12-07T04:32:39;99721.75;;;1.07;98.02
54924;BME280;40825;52.270;20.984;2022-12-07T04:35:05;99719.88;;;1.07;98.10
54924;BME280;40825;52.270;20.984;2022-12-07T04:37:31;99716.43;;;1.08;98.07
54924;BME280;40825;52.270;20.984;2022-12-07T04:39:57;99715.38;;;1.08;98.15
54924;BME280;40825;52.270;20.984;2022-12-07T04:42:22;99713.86;;;1.07;98.07
54924;BME280;40825;52.270;20.984;2022-12-07T04:44:48;99714.07;;;1.05;98.01
54924;BME280;40825;52.270;20.984;2022-12-07T04:47:14;99715.00;;;1.03;97.95
54924;BME280;40825;52.270;20.984;2022-12-07T04:49:39;99719.28;;;1.02;97.90
54924;BME280;40825;52.270;20.984;2022-12-07T04:52:05;99718.23;;;1.00;97.94
54924;BME280;40825;52.270;20.984;2022-12-07T04:54:30;99719.88;;;0.97;97.95
54924;BME280;40825;52.270;20.984;2022-12-07T04:56:55;99716.52;;;0.96;97.94
54924;BME280;40825;52.270;20.984;2022-12-07T04:59:21;99712.94;;;0.97;98.14
54924;BME280;40825;52.270;20.984;2022-12-07T05:01:46;99709.35;;;0.96;97.96
54924;BME280;40825;52.270;20.984;2022-12-07T05:04:12;99709.71;;;0.94;97.93
54924;BME280;40825;52.270;20.984;2022-12-07T05:06:37;99713.12;;;0.93;97.87
54924;BME280;40825;52.270;20.984;2022-12-07T05:09:03;99716.61;;;0.93;98.01
54924;BME280;40825;52.270;20.984;2022-12-07T05:11:47;99709.92;;;0.91;98.01
54924;BME280;40825;52.270;20.984;2022-12-07T05:14:18;99705.63;;;0.89;98.12
54924;BME280;40825;52.270;20.984;2022-12-07T05:16:46;99700.34;;;0.84;98.20
54924;BME280;40825;52.270;20.984;2022-12-07T05:19:12;99701.13;;;0.80;97.99
54924;BME280;40825;52.270;20.984;2022-12-07T05:21:39;99697.14;;;0.80;98.04
54924;BME280;40825;52.270;20.984;2022-12-07T05:24:06;99696.29;;;0.80;98.01
54924;BME280;40825;52.270;20.984;2022-12-07T05:26:32;99697.50;;;0.80;97.91
54924;BME280;40825;52.270;20.984;2022-12-07T05:28:57;99695.11;;;0.77;98.06
54924;BME280;40825;52.270;20.984;2022-12-07T05:31:25;99695.14;;;0.75;97.90
54924;BME280;40825;52.270;20.984;2022-12-07T05:33:51;99695.54;;;0.73;98.11
54924;BME280;40825;52.270;20.984;2022-12-07T05:36:17;99692.81;;;0.70;98.10
54924;BME280;40825;52.270;20.984;2022-12-07T05:38:43;99690.81;;;0.69;98.07
54924;BME280;40825;52.270;20.984;2022-12-07T05:41:12;99692.05;;;0.69;98.18
54924;BME280;40825;52.270;20.984;2022-12-07T05:43:59;99698.28;;;0.68;98.12
54924;BME280;40825;52.270;20.984;2022-12-07T05:46:25;99696.38;;;0.68;98.15
54924;BME280;40825;52.270;20.984;2022-12-07T05:48:50;99699.98;;;0.66;98.30
54924;BME280;40825;52.270;20.984;2022-12-07T05:51:16;99699.90;;;0.66;98.27
54924;BME280;40825;52.270;20.984;2022-12-07T05:53:41;99703.33;;;0.64;98.31
54924;BME280;40825;52.270;20.984;2022-12-07T05:56:07;99705.01;;;0.63;98.22
54924;BME280;40825;52.270;20.984;2022-12-07T05:58:32;99702.79;;;0.63;98.31
54924;BME280;40825;52.270;20.984;2022-12-07T06:01:36;99703.54;;;0.60;98.30
54924;BME280;40825;52.270;20.984;2022-12-07T06:04:02;99702.06;;;0.57;98.31
54924;BME280;40825;52.270;20.984;2022-12-07T06:06:27;99705.98;;;0.57;98.39
54924;BME280;40825;52.270;20.984;2022-12-07T06:08:52;99701.23;;;0.55;98.48
54924;BME280;40825;52.270;20.984;2022-12-07T06:11:18;99700.44;;;0.52;98.36
54924;BME280;40825;52.270;20.984;2022-12-07T06:14:02;99699.39;;;0.52;98.35
54924;BME280;40825;52.270;20.984;2022-12-07T06:16:27;99702.77;;;0.51;98.32
54924;BME280;40825;52.270;20.984;2022-12-07T06:18:53;99696.39;;;0.48;98.33
54924;BME280;40825;52.270;20.984;2022-12-07T06:21:19;99698.45;;;0.47;98.46
54924;BME280;40825;52.270;20.984;2022-12-07T06:23:44;99700.20;;;0.45;98.37
54924;BME280;40825;52.270;20.984;2022-12-07T06:26:10;99699.52;;;0.45;98.40
54924;BME280;40825;52.270;20.984;2022-12-07T06:28:35;99695.16;;;0.43;98.23
54924;BME280;40825;52.270;20.984;2022-12-07T06:31:02;99694.70;;;0.40;98.14
54924;BME280;40825;52.270;20.984;2022-12-07T06:33:28;99695.02;;;0.39;98.22
54924;BME280;40825;52.270;20.984;2022-12-07T06:35:54;99693.47;;;0.36;98.29
54924;BME280;40825;52.270;20.984;2022-12-07T06:38:20;99690.42;;;0.35;98.07
54924;BME280;40825;52.270;20.984;2022-12-07T06:40:45;99689.51;;;0.36;98.08
54924;BME280;40825;52.270;20.984;2022-12-07T06:43:11;99691.98;;;0.33;98.24
54924;BME280;40825;52.270;20.984;2022-12-07T06:45:36;99690.09;;;0.33;98.25
54924;BME280;40825;52.270;20.984;2022-12-07T06:48:02;99688.73;;;0.33;98.18
54924;BME280;40825;52.270;20.984;2022-12-07T06:50:27;99696.10;;;0.33;98.13
54924;BME280;40825;52.270;20.984;2022-12-07T06:52:54;99691.80;;;0.32;98.16
54924;BME280;40825;52.270;20.984;2022-12-07T06:55:19;99697.68;;;0.31;98.42
54924;BME280;40825;52.270;20.984;2022-12-07T06:57:45;99692.54;;;0.30;98.33
54924;BME280;40825;52.270;20.984;2022-12-07T07:00:11;99689.29;;;0.31;98.08
54924;BME280;40825;52.270;20.984;2022-12-07T07:02:37;99691.32;;;0.31;98.29
54924;BME280;40825;52.270;20.984;2022-12-07T07:05:03;99691.73;;;0.33;98.28
54924;BME280;40825;52.270;20.984;2022-12-07T07:07:28;99693.41;;;0.35;98.35
54924;BME280;40825;52.270;20.984;2022-12-07T07:09:54;99696.04;;;0.37;98.36
54924;BME280;40825;52.270;20.984;2022-12-07T07:12:19;99690.67;;;0.36;98.32
54924;BME280;40825;52.270;20.984;2022-12-07T07:14:45;99697.48;;;0.35;98.47
54924;BME280;40825;52.270;20.984;2022-12-07T07:17:10;99692.09;;;0.34;98.42
54924;BME280;40825;52.270;20.984;2022-12-07T07:19:35;99690.95;;;0.35;98.35
54924;BME280;40825;52.270;20.984;2022-12-07T07:22:02;99688.08;;;0.36;98.64
54924;BME280;40825;52.270;20.984;2022-12-07T07:24:28;99687.95;;;0.38;98.42
54924;BME280;40825;52.270;20.984;2022-12-07T07:26:53;99687.23;;;0.38;98.34
54924;BME280;40825;52.270;20.984;2022-12-07T07:29:18;99685.56;;;0.39;98.36
54924;BME280;40825;52.270;20.984;2022-12-07T07:31:44;99692.45;;;0.38;98.52
54924;BME280;40825;52.270;20.984;2022-12-07T07:34:10;99692.97;;;0.38;98.63
54924;BME280;40825;52.270;20.984;2022-12-07T07:36:35;99694.23;;;0.39;98.75
54924;BME280;40825;52.270;20.984;2022-12-07T07:39:01;99692.88;;;0.41;98.86
54924;BME280;40825;52.270;20.984;2022-12-07T07:41:26;99691.23;;;0.44;98.99
54924;BME280;40825;52.270;20.984;2022-12-07T07:43:51;99691.13;;;0.45;98.81
54924;BME280;40825;52.270;20.984;2022-12-07T07:46:17;99695.10;;;0.47;98.79
54924;BME280;40825;52.270;20.984;2022-12-07T07:48:42;99692.88;;;0.48;98.92
54924;BME280;40825;52.270;20.984;2022-12-07T07:51:08;99691.77;;;0.51;98.72
54924;BME280;40825;52.270;20.984;2022-12-07T07:53:34;99690.89;;;0.53;98.80
54924;BME280;40825;52.270;20.984;2022-12-07T07:55:59;99695.30;;;0.55;98.62
54924;BME280;40825;52.270;20.984;2022-12-07T07:58:25;99692.42;;;0.56;98.62
54924;BME280;40825;52.270;20.984;2022-12-07T08:00:51;99692.16;;;0.57;98.69
54924;BME280;40825;52.270;20.984;2022-12-07T08:03:16;99694.98;;;0.56;98.94
54924;BME280;40825;52.270;20.984;2022-12-07T08:05:42;99693.81;;;0.58;98.74
54924;BME280;40825;52.270;20.984;2022-12-07T08:08:08;99691.45;;;0.60;99.12
54924;BME280;40825;52.270;20.984;2022-12-07T08:10:33;99689.61;;;0.61;99.12
54924;BME280;40825;52.270;20.984;2022-12-07T08:13:00;99698.02;;;0.61;99.12
54924;BME280;40825;52.270;20.984;2022-12-07T08:15:44;99699.80;;;0.65;99.20
54924;BME280;40825;52.270;20.984;2022-12-07T08:18:10;99696.19;;;0.70;99.17
54924;BME280;40825;52.270;20.984;2022-12-07T08:20:36;99698.49;;;0.73;99.17
54924;BME280;40825;52.270;20.984;2022-12-07T08:23:03;99701.18;;;0.76;99.39
54924;BME280;40825;52.270;20.984;2022-12-07T08:25:29;99706.30;;;0.78;99.32
54924;BME280;40825;52.270;20.984;2022-12-07T08:27:55;99705.85;;;0.80;99.42
54924;BME280;40825;52.270;20.984;2022-12-07T08:30:20;99705.83;;;0.81;99.51
54924;BME280;40825;52.270;20.984;2022-12-07T08:32:47;99706.16;;;0.83;99.48
54924;BME280;40825;52.270;20.984;2022-12-07T08:35:13;99709.30;;;0.87;99.62
54924;BME280;40825;52.270;20.984;2022-12-07T08:37:39;99714.85;;;0.89;99.71
54924;BME280;40825;52.270;20.984;2022-12-07T08:40:07;99712.55;;;0.92;99.65
54924;BME280;40825;52.270;20.984;2022-12-07T08:42:33;99714.66;;;0.93;99.73
54924;BME280;40825;52.270;20.984;2022-12-07T08:45:07;99716.33;;;0.94;99.67
54924;BME280;40825;52.270;20.984;2022-12-07T08:47:35;99711.55;;;0.95;100.00
54924;BME280;40825;52.270;20.984;2022-12-07T08:50:03;99709.85;;;0.94;99.90
54924;BME280;40825;52.270;20.984;2022-12-07T08:52:31;99712.27;;;0.96;99.92
54924;BME280;40825;52.270;20.984;2022-12-07T08:54:58;99714.17;;;1.01;100.00
54924;BME280;40825;52.270;20.984;2022-12-07T08:57:27;99716.68;;;1.07;100.00
54924;BME280;40825;52.270;20.984;2022-12-07T08:59:53;99716.06;;;1.14;100.00
54924;BME280;40825;52.270;20.984;2022-12-07T09:02:19;99716.84;;;1.21;99.89
54924;BME280;40825;52.270;20.984;2022-12-07T09:04:45;99713.46;;;1.28;99.93
54924;BME280;40825;52.270;20.984;2022-12-07T09:07:10;99709.52;;;1.37;99.76
54924;BME280;40825;52.270;20.984;2022-12-07T09:09:36;99703.48;;;1.47;99.72
54924;BME280;40825;52.270;20.984;2022-12-07T09:12:02;99702.30;;;1.55;99.63
54924;BME280;40825;52.270;20.984;2022-12-07T09:14:27;99702.68;;;1.62;99.43
54924;BME280;40825;52.270;20.984;2022-12-07T09:16:53;99701.36;;;1.71;99.40
54924;BME280;40825;52.270;20.984;2022-12-07T09:19:18;99694.48;;;1.76;99.16
54924;BME280;40825;52.270;20.984;2022-12-07T09:21:44;99689.93;;;1.80;99.11
54924;BME280;40825;52.270;20.984;2022-12-07T09:24:09;99687.45;;;1.85;99.20
54924;BME280;40825;52.270;20.984;2022-12-07T09:26:35;99683.73;;;1.91;99.18
54924;BME280;40825;52.270;20.984;2022-12-07T09:29:02;99686.52;;;1.97;99.15
54924;BME280;40825;52.270;20.984;2022-12-07T09:31:28;99686.03;;;2.02;98.95
54924;BME280;40825;52.270;20.984;2022-12-07T09:33:59;99683.46;;;2.07;98.80
54924;BME280;40825;52.270;20.984;2022-12-07T09:36:25;99682.41;;;2.08;98.39
54924;BME280;40825;52.270;20.984;2022-12-07T09:38:52;99686.71;;;2.09;98.30
54924;BME280;40825;52.270;20.984;2022-12-07T09:41:18;99683.29;;;2.14;98.33
54924;BME280;40825;52.270;20.984;2022-12-07T09:43:44;99682.98;;;2.17;98.36
54924;BME280;40825;52.270;20.984;2022-12-07T09:46:16;99682.84;;;2.22;98.50
54924;BME280;40825;52.270;20.984;2022-12-07T09:48:45;99679.14;;;2.29;98.74
54924;BME280;40825;52.270;20.984;2022-12-07T09:51:21;99681.77;;;2.34;98.34
54924;BME280;40825;52.270;20.984;2022-12-07T09:53:48;99677.64;;;2.35;97.59
54924;BME280;40825;52.270;20.984;2022-12-07T09:56:15;99676.72;;;2.41;98.29
54924;BME280;40825;52.270;20.984;2022-12-07T09:58:41;99675.48;;;2.46;98.27
54924;BME280;40825;52.270;20.984;2022-12-07T10:03:36;99675.31;;;2.50;97.45
54924;BME280;40825;52.270;20.984;2022-12-07T10:06:04;99673.77;;;2.53;97.51
54924;BME280;40825;52.270;20.984;2022-12-07T10:08:30;99670.89;;;2.55;97.12
54924;BME280;40825;52.270;20.984;2022-12-07T10:10:56;99672.86;;;2.59;97.05
54924;BME280;40825;52.270;20.984;2022-12-07T10:15:59;99670.67;;;2.63;96.74
54924;BME280;40825;52.270;20.984;2022-12-07T10:21:26;99668.79;;;2.64;96.83
54924;BME280;40825;52.270;20.984;2022-12-07T10:24:12;99666.85;;;2.64;95.42
54924;BME280;40825;52.270;20.984;2022-12-07T10:26:50;99664.76;;;2.66;96.20
54924;BME280;40825;52.270;20.984;2022-12-07T10:29:22;99665.39;;;2.68;96.48
54924;BME280;40825;52.270;20.984;2022-12-07T10:32:01;99662.48;;;2.69;95.52
54924;BME280;40825;52.270;20.984;2022-12-07T10:34:35;99664.34;;;2.69;95.78
54924;BME280;40825;52.270;20.984;2022-12-07T10:37:17;99662.10;;;2.71;95.51
54924;BME280;40825;52.270;20.984;2022-12-07T10:39:55;99656.20;;;2.73;95.97
54924;BME280;40825;52.270;20.984;2022-12-07T10:44:48;99660.55;;;2.74;95.10
54924;BME280;40825;52.270;20.984;2022-12-07T10:55:47;99662.86;;;2.78;94.30
54924;BME280;40825;52.270;20.984;2022-12-07T10:58:36;99661.48;;;2.79;93.67
54924;BME280;40825;52.270;20.984;2022-12-07T11:15:24;99657.83;;;2.90;93.22
54924;BME280;40825;52.270;20.984;2022-12-07T11:31:52;99649.59;;;3.00;92.33
54924;BME280;40825;52.270;20.984;2022-12-07T11:37:03;99651.75;;;2.92;92.08
54924;BME280;40825;52.270;20.984;2022-12-07T11:39:38;99649.77;;;2.92;92.77
54924;BME280;40825;52.270;20.984;2022-12-07T11:42:49;99645.50;;;2.96;92.87
54924;BME280;40825;52.270;20.984;2022-12-07T11:45:29;99646.45;;;3.06;92.68
54924;BME280;40825;52.270;20.984;2022-12-07T11:48:35;99647.23;;;3.17;92.14
54924;BME280;40825;52.270;20.984;2022-12-07T11:51:03;99645.67;;;3.25;92.54
54924;BME280;40825;52.270;20.984;2022-12-07T11:56:09;99640.14;;;3.33;91.23
54924;BME280;40825;52.270;20.984;2022-12-07T12:03:46;99643.48;;;3.39;90.74
54924;BME280;40825;52.270;20.984;2022-12-07T12:06:13;99641.73;;;3.44;91.44
54924;BME280;40825;52.270;20.984;2022-12-07T12:08:47;99636.58;;;3.53;91.90
54924;BME280;40825;52.270;20.984;2022-12-07T12:11:23;99633.81;;;3.56;90.67
54924;BME280;40825;52.270;20.984;2022-12-07T12:14:30;99627.01;;;3.49;89.95
54924;BME280;40825;52.270;20.984;2022-12-07T12:22:35;99622.41;;;3.17;90.70
54924;BME280;40825;52.270;20.984;2022-12-07T12:25:05;99617.15;;;3.07;91.21
54924;BME280;40825;52.270;20.984;2022-12-07T12:27:34;99618.19;;;3.02;91.21
54924;BME280;40825;52.270;20.984;2022-12-07T12:30:03;99617.35;;;2.98;90.86
54924;BME280;40825;52.270;20.984;2022-12-07T12:37:46;99610.23;;;2.85;91.04
54924;BME280;40825;52.270;20.984;2022-12-07T12:45:28;99613.22;;;2.68;91.08
54924;BME280;40825;52.270;20.984;2022-12-07T12:48:07;99611.11;;;2.63;91.06
54924;BME280;40825;52.270;20.984;2022-12-07T12:54:05;99605.73;;;2.53;91.42
54924;BME280;40825;52.270;20.984;2022-12-07T12:56:59;99604.52;;;2.52;91.49
54924;BME280;40825;52.270;20.984;2022-12-07T12:59:33;99605.40;;;2.50;91.47
54924;BME280;40825;52.270;20.984;2022-12-07T13:04:49;99600.73;;;2.45;91.58
54924;BME280;40825;52.270;20.984;2022-12-07T13:10:02;99596.13;;;2.39;91.28
54924;BME280;40825;52.270;20.984;2022-12-07T13:12:27;99595.76;;;2.38;91.20
54924;BME280;40825;52.270;20.984;2022-12-07T13:14:56;99595.65;;;2.35;91.04
54924;BME280;40825;52.270;20.984;2022-12-07T13:19:57;99596.25;;;2.31;90.49
54924;BME280;40825;52.270;20.984;2022-12-07T13:25:21;99593.27;;;2.26;90.02
54924;BME280;40825;52.270;20.984;2022-12-07T13:27:57;99593.64;;;2.24;90.37
54924;BME280;40825;52.270;20.984;2022-12-07T13:30:23;99596.08;;;2.22;90.07
54924;BME280;40825;52.270;20.984;2022-12-07T13:32:54;99591.55;;;2.20;89.97
54924;BME280;40825;52.270;20.984;2022-12-07T13:35:32;99592.77;;;2.15;89.72
54924;BME280;40825;52.270;20.984;2022-12-07T13:38:00;99593.80;;;2.08;89.89
54924;BME280;40825;52.270;20.984;2022-12-07T13:40:27;99597.40;;;2.05;90.26
54924;BME280;40825;52.270;20.984;2022-12-07T13:43:04;99598.68;;;2.03;90.36
54924;BME280;40825;52.270;20.984;2022-12-07T13:45:32;99597.48;;;2.01;90.51
54924;BME280;40825;52.270;20.984;2022-12-07T13:48:35;99602.94;;;1.99;90.70
54924;BME280;40825;52.270;20.984;2022-12-07T13:51:03;99601.52;;;1.96;90.76
54924;BME280;40825;52.270;20.984;2022-12-07T13:53:30;99602.09;;;1.94;91.04
54924;BME280;40825;52.270;20.984;2022-12-07T13:55:57;99602.92;;;1.90;91.14
54924;BME280;40825;52.270;20.984;2022-12-07T13:58:25;99605.60;;;1.86;91.32
54924;BME280;40825;52.270;20.984;2022-12-07T14:00:51;99602.06;;;1.83;91.45
54924;BME280;40825;52.270;20.984;2022-12-07T14:05:44;99600.59;;;1.75;91.76
54924;BME280;40825;52.270;20.984;2022-12-07T14:10:54;99601.97;;;1.70;91.91
54924;BME280;40825;52.270;20.984;2022-12-07T14:13:31;99598.45;;;1.66;92.43
54924;BME280;40825;52.270;20.984;2022-12-07T14:15:58;99598.51;;;1.66;92.07
54924;BME280;40825;52.270;20.984;2022-12-07T14:18:37;99601.70;;;1.65;91.99
54924;BME280;40825;52.270;20.984;2022-12-07T14:23:29;99613.27;;;1.56;92.28
54924;BME280;40825;52.270;20.984;2022-12-07T14:26:12;99608.40;;;1.51;92.34
54924;BME280;40825;52.270;20.984;2022-12-07T14:28:42;99605.89;;;1.46;92.44
54924;BME280;40825;52.270;20.984;2022-12-07T14:31:17;99605.16;;;1.43;92.55
54924;BME280;40825;52.270;20.984;2022-12-07T14:33:43;99607.05;;;1.39;92.73
54924;BME280;40825;52.270;20.984;2022-12-07T14:36:11;99606.49;;;1.36;92.88
54924;BME280;40825;52.270;20.984;2022-12-07T14:38:37;99608.27;;;1.34;92.89
54924;BME280;40825;52.270;20.984;2022-12-07T14:41:04;99603.32;;;1.31;92.70
54924;BME280;40825;52.270;20.984;2022-12-07T14:43:49;99605.20;;;1.28;92.76
54924;BME280;40825;52.270;20.984;2022-12-07T14:46:15;99604.05;;;1.25;92.90
54924;BME280;40825;52.270;20.984;2022-12-07T14:48:41;99610.05;;;1.21;93.06
54924;BME280;40825;52.270;20.984;2022-12-07T14:51:08;99608.23;;;1.18;93.03
54924;BME280;40825;52.270;20.984;2022-12-07T14:53:39;99608.35;;;1.13;93.00
54924;BME280;40825;52.270;20.984;2022-12-07T14:56:06;99604.86;;;1.09;92.93
54924;BME280;40825;52.270;20.984;2022-12-07T14:58:32;99605.45;;;1.06;93.10
54924;BME280;40825;52.270;20.984;2022-12-07T15:00:58;99606.02;;;1.04;92.92
54924;BME280;40825;52.270;20.984;2022-12-07T15:03:24;99600.65;;;1.02;92.99
54924;BME280;40825;52.270;20.984;2022-12-07T15:05:50;99601.90;;;1.00;93.27
54924;BME280;40825;52.270;20.984;2022-12-07T15:08:15;99599.65;;;0.98;93.31